KFAF/FAF METAR and TAF weather

Enter ICAO airport designator
Station Type Date Time Source
KFAF METAR 2020/11/27 13:56 UTC NOAA

KFAF 271356Z AUTO 08003KT 10SM CLR 14/09 A3006 RMK AO2 SLP182 T01430085 $


Station Type Date Time Source
KFAF Decoded METAR 2020/11/27 13:56 UTC NOAA

Fort Eustis / Felker, VA, United States (KFAF) 37-08N 076-37W
Nov 27, 2020 - 08:56 AM EST / 2020.11.27 1356 UTC
Wind: from the E (080 degrees) at 3 MPH (3 KT):0
Visibility: 10 mile(s):0
Sky conditions: clear
Temperature: 57.7 F (14.3 C)
Dew Point: 47.3 F (8.5 C)
Relative Humidity: 68%
Pressure (altimeter): 30.06 in. Hg (1017 hPa)
ob: KFAF 271356Z AUTO 08003KT 10SM CLR 14/09 A3006 RMK AO2 SLP182 T01430085
cycle: 14

Station Type Date Time Source
KFAF TAF 2020/11/25 19:36 UTC NOAA

TAF TAF KFAF 251900Z 2519/2701 VRB06KT 9999 SCT070 BKN250 QNH3028INS
BECMG 2608/2609 18009KT 9999 BKN030 QNH3006INS
BECMG 2611/2612 19009KT 6000 -SHRA SCT005 OVC010 QNH3007INS
BECMG 2618/2619 VRB06KT 9999 NSW BKN005 OVC010 QNH3003INS TX21/2619Z TN15/2519Z LAST NO
AMDS AFT 2519 NEXT 3011

Example: see airport list